»·PEaware :: N7436R KBFL-KCMA

N7436R :: KBFL-KCMA

FLIGHT INFORMATION

Flight Status: Arrived
Operator: Privately registered:
United States
More flights under this callsign
Pilot: Gopalakrishna Pillai Sulekha S. (22834)
Aircraft: BEECH AIRCRAFT SUPER KING AIR COMMUTER
(BE20)
More flights by this aircraft type
Origin: KBFL Meadows
United States
Destination: KCMA Camarillo
United States
More flights between these airports :: More routes between these airports
Route: +MEADO4 FIM
File this flight plan on PilotEdge
Remarks:
Altitude:
(Current/Filed)
13,000ft
Speed:
(Current/Filed)
200kts
Departed: 04-Jan-20 09:43 AM
Arrived: 04-Jan-20 10:12 AM
Distance/Time
Traveled:
73nm/0:28
Distance/Time
To Go:
Arrived

Flight Plot

Page will automatically refresh every two minutes.

Flight plan parsing failed; only flown route is shown


Map Options




Map Legend


Flown Route
Filed Route
Departure Airport
Arrival Airport
Navaid (VOR, NDB)
Fix

Horizontal Profiles

Position Reports

Time Latitude Longitude Heading Altitude Ground
Speed
04-Jan-20 09:21 35.429384 -119.046084 226 495ft 0kts
04-Jan-20 09:22 35.429384 -119.046084 226 495ft 0kts
04-Jan-20 09:23 35.429384 -119.046084 226 495ft 0kts
04-Jan-20 09:24 35.429384 -119.046084 226 495ft 0kts
04-Jan-20 09:25 35.429384 -119.046084 226 495ft 0kts
04-Jan-20 09:26 35.429384 -119.046084 226 495ft 0kts
04-Jan-20 09:27 35.429384 -119.046084 226 495ft 0kts
04-Jan-20 09:28 35.429384 -119.046084 226 495ft 0kts
04-Jan-20 09:29 35.429384 -119.046084 226 495ft 0kts
04-Jan-20 09:30 35.429384 -119.046084 226 495ft 0kts
04-Jan-20 09:31 35.429384 -119.046084 226 495ft 0kts
04-Jan-20 09:32 35.429384 -119.046084 226 495ft 0kts
04-Jan-20 09:33 35.429384 -119.046084 226 495ft 0kts
04-Jan-20 09:34 35.429384 -119.046084 226 495ft 0kts
04-Jan-20 09:35 35.429384 -119.046084 226 495ft 0kts
04-Jan-20 09:36 35.429384 -119.046084 226 495ft 0kts
04-Jan-20 09:37 35.429384 -119.046084 226 495ft 0kts
04-Jan-20 09:39 35.429384 -119.046084 226 495ft 0kts
04-Jan-20 09:40 35.428798 -119.046880 230 491ft 22kts
04-Jan-20 09:41 35.425701 -119.044787 228 479ft 0kts
04-Jan-20 09:42 35.425701 -119.044787 228 479ft 0kts
04-Jan-20 09:43 35.432910 -119.054614 322 974ft 143kts
04-Jan-20 09:44 35.425383 -119.124830 241 2832ft 263kts
04-Jan-20 09:45 35.372418 -119.174111 208 2987ft 188kts
04-Jan-20 09:46 35.331388 -119.202997 207 3011ft 161kts
04-Jan-20 09:47 35.288675 -119.221414 154 3172ft 160kts
04-Jan-20 09:48 35.256596 -119.204327 152 4655ft 91kts
04-Jan-20 09:49 35.245657 -119.178758 134 6127ft 167kts
04-Jan-20 09:50 35.195935 -119.148887 151 7441ft 208kts
04-Jan-20 09:51 35.142749 -119.119009 151 9070ft 207kts
04-Jan-20 09:52 35.089902 -119.089603 151 10699ft 204kts
04-Jan-20 09:53 35.036286 -119.060254 151 12661ft 216kts
04-Jan-20 09:54 34.974070 -119.025696 151 12968ft 266kts
04-Jan-20 09:55 34.905030 -118.986515 150 12961ft 265kts
04-Jan-20 09:56 34.837989 -118.951749 161 12962ft 258kts
04-Jan-20 09:57 34.767264 -118.935043 170 12978ft 258kts
04-Jan-20 09:58 34.695071 -118.924827 169 12978ft 258kts
04-Jan-20 09:58 34.635420 -118.916260 169 12978ft 258kts
04-Jan-20 10:00 34.550686 -118.907180 172 12979ft 259kts
04-Jan-20 10:01 34.475810 -118.898249 155 12916ft 256kts
04-Jan-20 10:01 34.417653 -118.864899 150 11128ft 278kts
04-Jan-20 10:02 34.349714 -118.824121 150 8839ft 236kts
04-Jan-20 10:04 34.292667 -118.790987 149 8069ft 144kts
04-Jan-20 10:04 34.259335 -118.772200 150 8089ft 178kts
04-Jan-20 10:05 34.214227 -118.783908 253 6007ft 200kts
04-Jan-20 10:06 34.200535 -118.857062 258 3515ft 263kts
04-Jan-20 10:07 34.189672 -118.924289 276 2938ft 169kts
04-Jan-20 10:08 34.214156 -118.969323 307 2161ft 171kts
04-Jan-20 10:09 34.221633 -119.020594 253 1893ft 147kts
04-Jan-20 10:10 34.213363 -119.061327 272 493ft 130kts
04-Jan-20 10:11 34.213753 -119.092603 270 67ft 16kts
04-Jan-20 10:12 34.213127 -119.095475 215 65ft 0kts
04-Jan-20 10:13 34.211960 -119.095660 162 65ft 19kts
04-Jan-20 10:14 34.210728 -119.088774 98 69ft 0kts

Navigation Log

Ident Type
Flight plan parsing failed, navigation log unavailable